sensor_id;sensor_type;location;lat;lon;timestamp;temperature;humidity
41435;DHT22;27177;22.262;114.192;2022-08-05T00:02:07;25.10;99.90
41435;DHT22;27177;22.262;114.192;2022-08-05T00:04:34;25.20;99.90
41435;DHT22;27177;22.262;114.192;2022-08-05T00:07:01;25.30;99.90
41435;DHT22;27177;22.262;114.192;2022-08-05T00:09:28;25.30;99.90
41435;DHT22;27177;22.262;114.192;2022-08-05T00:11:55;25.40;99.90
41435;DHT22;27177;22.262;114.192;2022-08-05T00:14:23;25.40;99.90
41435;DHT22;27177;22.262;114.192;2022-08-05T00:16:50;25.50;99.90
41435;DHT22;27177;22.262;114.192;2022-08-05T00:19:17;25.60;99.90
41435;DHT22;27177;22.262;114.192;2022-08-05T00:21:44;25.60;99.90
41435;DHT22;27177;22.262;114.192;2022-08-05T00:24:11;25.70;99.90
41435;DHT22;27177;22.262;114.192;2022-08-05T00:26:38;25.80;99.90
41435;DHT22;27177;22.262;114.192;2022-08-05T00:29:05;25.90;99.90
41435;DHT22;27177;22.262;114.192;2022-08-05T00:31:32;25.90;99.90
41435;DHT22;27177;22.262;114.192;2022-08-05T00:33:59;26.00;99.90
41435;DHT22;27177;22.262;114.192;2022-08-05T00:36:26;26.10;99.90
41435;DHT22;27177;22.262;114.192;2022-08-05T00:38:53;26.20;99.90
41435;DHT22;27177;22.262;114.192;2022-08-05T00:41:34;26.30;99.90
41435;DHT22;27177;22.262;114.192;2022-08-05T00:44:01;26.40;99.90
41435;DHT22;27177;22.262;114.192;2022-08-05T00:46:28;26.40;99.90
41435;DHT22;27177;22.262;114.192;2022-08-05T00:48:55;26.50;99.90
41435;DHT22;27177;22.262;114.192;2022-08-05T00:51:22;26.50;99.90
41435;DHT22;27177;22.262;114.192;2022-08-05T00:53:50;26.60;99.90
41435;DHT22;27177;22.262;114.192;2022-08-05T00:56:17;26.80;99.90
41435;DHT22;27177;22.262;114.192;2022-08-05T00:58:44;26.80;99.90
41435;DHT22;27177;22.262;114.192;2022-08-05T01:01:12;26.80;99.90
41435;DHT22;27177;22.262;114.192;2022-08-05T01:03:43;26.80;99.90
41435;DHT22;27177;22.262;114.192;2022-08-05T01:06:10;26.50;99.90
41435;DHT22;27177;22.262;114.192;2022-08-05T01:08:37;26.30;99.90
41435;DHT22;27177;22.262;114.192;2022-08-05T01:19:49;25.60;99.90
41435;DHT22;27177;22.262;114.192;2022-08-05T01:26:01;25.70;99.90
41435;DHT22;27177;22.262;114.192;2022-08-05T01:28:42;25.70;99.90
41435;DHT22;27177;22.262;114.192;2022-08-05T01:34:24;25.80;99.90
41435;DHT22;27177;22.262;114.192;2022-08-05T01:39:43;26.00;99.90
41435;DHT22;27177;22.262;114.192;2022-08-05T01:42:13;26.10;99.90
41435;DHT22;27177;22.262;114.192;2022-08-05T01:44:43;26.30;99.90
41435;DHT22;27177;22.262;114.192;2022-08-05T01:52:22;26.80;99.90
41435;DHT22;27177;22.262;114.192;2022-08-05T01:54:58;27.00;99.90
41435;DHT22;27177;22.262;114.192;2022-08-05T01:57:32;27.10;99.90
41435;DHT22;27177;22.262;114.192;2022-08-05T02:00:04;27.20;99.90
41435;DHT22;27177;22.262;114.192;2022-08-05T02:02:33;27.30;99.90
41435;DHT22;27177;22.262;114.192;2022-08-05T02:05:05;27.30;99.90
41435;DHT22;27177;22.262;114.192;2022-08-05T02:07:33;27.40;99.90
41435;DHT22;27177;22.262;114.192;2022-08-05T02:10:02;27.60;99.90
41435;DHT22;27177;22.262;114.192;2022-08-05T02:15:28;27.90;99.90
41435;DHT22;27177;22.262;114.192;2022-08-05T02:18:02;28.00;99.90
41435;DHT22;27177;22.262;114.192;2022-08-05T02:20:35;28.00;99.90
41435;DHT22;27177;22.262;114.192;2022-08-05T02:23:07;28.00;99.90
41435;DHT22;27177;22.262;114.192;2022-08-05T02:25:36;28.00;99.90
41435;DHT22;27177;22.262;114.192;2022-08-05T02:28:07;28.00;99.90
41435;DHT22;27177;22.262;114.192;2022-08-05T02:31:01;28.00;99.90
41435;DHT22;27177;22.262;114.192;2022-08-05T02:33:34;28.10;99.90
41435;DHT22;27177;22.262;114.192;2022-08-05T02:36:04;28.10;99.90
41435;DHT22;27177;22.262;114.192;2022-08-05T02:38:31;28.10;99.90
41435;DHT22;27177;22.262;114.192;2022-08-05T02:40:59;28.20;99.90
41435;DHT22;27177;22.262;114.192;2022-08-05T02:43:27;28.10;99.90
41435;DHT22;27177;22.262;114.192;2022-08-05T02:46:01;28.10;99.90
41435;DHT22;27177;22.262;114.192;2022-08-05T02:48:29;28.10;99.90
41435;DHT22;27177;22.262;114.192;2022-08-05T02:50:59;28.00;99.90
41435;DHT22;27177;22.262;114.192;2022-08-05T02:53:28;28.00;99.90
41435;DHT22;27177;22.262;114.192;2022-08-05T02:55:56;28.10;99.90
41435;DHT22;27177;22.262;114.192;2022-08-05T02:58:24;28.00;99.90
41435;DHT22;27177;22.262;114.192;2022-08-05T03:00:54;27.80;99.90
41435;DHT22;27177;22.262;114.192;2022-08-05T03:03:22;27.70;99.90
41435;DHT22;27177;22.262;114.192;2022-08-05T03:05:50;27.70;99.90
41435;DHT22;27177;22.262;114.192;2022-08-05T03:08:18;27.80;99.90
41435;DHT22;27177;22.262;114.192;2022-08-05T03:10:45;27.90;99.90
41435;DHT22;27177;22.262;114.192;2022-08-05T03:13:13;28.10;99.90
41435;DHT22;27177;22.262;114.192;2022-08-05T03:15:45;28.30;99.90
41435;DHT22;27177;22.262;114.192;2022-08-05T03:18:13;28.40;99.90
41435;DHT22;27177;22.262;114.192;2022-08-05T03:20:40;28.60;99.90
41435;DHT22;27177;22.262;114.192;2022-08-05T03:23:09;28.80;99.90
41435;DHT22;27177;22.262;114.192;2022-08-05T03:25:37;28.80;99.90
41435;DHT22;27177;22.262;114.192;2022-08-05T03:28:06;28.90;99.90
41435;DHT22;27177;22.262;114.192;2022-08-05T03:30:34;28.90;99.90
41435;DHT22;27177;22.262;114.192;2022-08-05T03:33:03;28.80;99.90
41435;DHT22;27177;22.262;114.192;2022-08-05T03:35:31;28.80;99.90
41435;DHT22;27177;22.262;114.192;2022-08-05T03:37:59;28.80;99.90
41435;DHT22;27177;22.262;114.192;2022-08-05T03:40:26;28.90;99.90
41435;DHT22;27177;22.262;114.192;2022-08-05T03:42:53;29.00;99.90
41435;DHT22;27177;22.262;114.192;2022-08-05T03:45:20;29.10;99.90
41435;DHT22;27177;22.262;114.192;2022-08-05T03:47:47;29.20;99.90
41435;DHT22;27177;22.262;114.192;2022-08-05T03:50:14;29.50;99.90
41435;DHT22;27177;22.262;114.192;2022-08-05T03:53:10;29.70;99.90
41435;DHT22;27177;22.262;114.192;2022-08-05T03:55:49;29.90;99.90
41435;DHT22;27177;22.262;114.192;2022-08-05T03:58:20;30.10;99.90
41435;DHT22;27177;22.262;114.192;2022-08-05T04:00:49;30.00;99.90
41435;DHT22;27177;22.262;114.192;2022-08-05T04:03:18;30.00;99.90
41435;DHT22;27177;22.262;114.192;2022-08-05T04:05:45;30.00;99.90
41435;DHT22;27177;22.262;114.192;2022-08-05T04:10:46;30.00;99.90
41435;DHT22;27177;22.262;114.192;2022-08-05T04:13:14;30.10;99.90
41435;DHT22;27177;22.262;114.192;2022-08-05T04:15:45;30.30;99.90
41435;DHT22;27177;22.262;114.192;2022-08-05T04:18:13;30.60;99.90
41435;DHT22;27177;22.262;114.192;2022-08-05T04:23:15;31.00;99.90
41435;DHT22;27177;22.262;114.192;2022-08-05T04:25:55;31.00;99.90
41435;DHT22;27177;22.262;114.192;2022-08-05T04:28:22;30.80;99.90
41435;DHT22;27177;22.262;114.192;2022-08-05T04:30:49;30.60;99.90
41435;DHT22;27177;22.262;114.192;2022-08-05T04:33:16;30.20;99.90
41435;DHT22;27177;22.262;114.192;2022-08-05T04:35:44;29.60;99.90
41435;DHT22;27177;22.262;114.192;2022-08-05T04:38:11;29.30;99.90
41435;DHT22;27177;22.262;114.192;2022-08-05T04:40:45;29.00;99.90
41435;DHT22;27177;22.262;114.192;2022-08-05T04:43:12;28.60;99.90
41435;DHT22;27177;22.262;114.192;2022-08-05T04:45:46;28.50;99.90
41435;DHT22;27177;22.262;114.192;2022-08-05T04:48:14;28.20;99.90
41435;DHT22;27177;22.262;114.192;2022-08-05T04:50:43;28.10;99.90
41435;DHT22;27177;22.262;114.192;2022-08-05T04:53:12;27.90;99.90
41435;DHT22;27177;22.262;114.192;2022-08-05T04:55:41;27.70;99.90
41435;DHT22;27177;22.262;114.192;2022-08-05T04:58:09;27.40;99.90
41435;DHT22;27177;22.262;114.192;2022-08-05T05:00:37;27.30;99.90
41435;DHT22;27177;22.262;114.192;2022-08-05T05:03:05;27.10;99.90
41435;DHT22;27177;22.262;114.192;2022-08-05T05:05:33;27.00;99.90
41435;DHT22;27177;22.262;114.192;2022-08-05T05:08:05;26.70;99.90
41435;DHT22;27177;22.262;114.192;2022-08-05T05:10:38;26.40;99.90
41435;DHT22;27177;22.262;114.192;2022-08-05T05:13:10;25.90;99.90
41435;DHT22;27177;22.262;114.192;2022-08-05T05:15:37;25.60;99.90
41435;DHT22;27177;22.262;114.192;2022-08-05T05:18:05;25.40;99.90
41435;DHT22;27177;22.262;114.192;2022-08-05T05:20:33;25.50;99.90
41435;DHT22;27177;22.262;114.192;2022-08-05T05:23:02;25.40;99.90
41435;DHT22;27177;22.262;114.192;2022-08-05T05:25:32;25.40;99.90
41435;DHT22;27177;22.262;114.192;2022-08-05T05:27:59;25.40;99.90
41435;DHT22;27177;22.262;114.192;2022-08-05T05:30:26;25.40;99.90
41435;DHT22;27177;22.262;114.192;2022-08-05T05:32:53;25.50;99.90
41435;DHT22;27177;22.262;114.192;2022-08-05T05:35:21;25.50;99.90
41435;DHT22;27177;22.262;114.192;2022-08-05T05:37:53;25.40;99.90
41435;DHT22;27177;22.262;114.192;2022-08-05T05:40:22;25.40;99.90
41435;DHT22;27177;22.262;114.192;2022-08-05T05:42:49;25.50;99.90
41435;DHT22;27177;22.262;114.192;2022-08-05T05:45:17;25.40;99.90
41435;DHT22;27177;22.262;114.192;2022-08-05T05:47:45;25.50;99.90
41435;DHT22;27177;22.262;114.192;2022-08-05T05:50:16;25.50;99.90
41435;DHT22;27177;22.262;114.192;2022-08-05T05:52:45;25.50;99.90
41435;DHT22;27177;22.262;114.192;2022-08-05T05:55:14;25.60;99.90
41435;DHT22;27177;22.262;114.192;2022-08-05T05:57:43;25.60;99.90
41435;DHT22;27177;22.262;114.192;2022-08-05T06:00:18;25.60;99.90
41435;DHT22;27177;22.262;114.192;2022-08-05T06:02:46;25.50;99.90
41435;DHT22;27177;22.262;114.192;2022-08-05T06:05:14;25.50;99.90
41435;DHT22;27177;22.262;114.192;2022-08-05T06:07:42;25.40;99.90
41435;DHT22;27177;22.262;114.192;2022-08-05T06:10:10;25.40;99.90
41435;DHT22;27177;22.262;114.192;2022-08-05T06:12:38;25.30;99.90
41435;DHT22;27177;22.262;114.192;2022-08-05T06:15:06;25.30;99.90
41435;DHT22;27177;22.262;114.192;2022-08-05T06:17:33;25.30;99.90
41435;DHT22;27177;22.262;114.192;2022-08-05T06:20:02;25.30;99.90
41435;DHT22;27177;22.262;114.192;2022-08-05T06:22:31;25.40;99.90
41435;DHT22;27177;22.262;114.192;2022-08-05T06:25:00;25.40;99.90
41435;DHT22;27177;22.262;114.192;2022-08-05T06:27:27;25.50;99.90
41435;DHT22;27177;22.262;114.192;2022-08-05T06:29:54;25.40;99.90
41435;DHT22;27177;22.262;114.192;2022-08-05T06:32:25;25.40;99.90
41435;DHT22;27177;22.262;114.192;2022-08-05T06:34:53;25.30;99.90
41435;DHT22;27177;22.262;114.192;2022-08-05T06:37:20;25.30;99.90
41435;DHT22;27177;22.262;114.192;2022-08-05T06:39:47;25.30;99.90
41435;DHT22;27177;22.262;114.192;2022-08-05T06:42:14;25.30;99.90
41435;DHT22;27177;22.262;114.192;2022-08-05T06:44:41;25.30;99.90
41435;DHT22;27177;22.262;114.192;2022-08-05T06:47:08;25.30;99.90
41435;DHT22;27177;22.262;114.192;2022-08-05T06:49:35;25.40;99.90
41435;DHT22;27177;22.262;114.192;2022-08-05T06:52:03;25.50;99.90
41435;DHT22;27177;22.262;114.192;2022-08-05T06:54:30;25.60;99.90
41435;DHT22;27177;22.262;114.192;2022-08-05T06:56:57;25.60;99.90
41435;DHT22;27177;22.262;114.192;2022-08-05T06:59:24;25.70;99.90
41435;DHT22;27177;22.262;114.192;2022-08-05T07:01:51;25.80;99.90
41435;DHT22;27177;22.262;114.192;2022-08-05T07:04:18;25.80;99.90
41435;DHT22;27177;22.262;114.192;2022-08-05T07:06:45;25.90;99.90
41435;DHT22;27177;22.262;114.192;2022-08-05T07:11:47;26.00;99.90
41435;DHT22;27177;22.262;114.192;2022-08-05T07:14:16;26.00;99.90
41435;DHT22;27177;22.262;114.192;2022-08-05T07:17:15;26.10;99.90
41435;DHT22;27177;22.262;114.192;2022-08-05T07:19:42;26.10;99.90
41435;DHT22;27177;22.262;114.192;2022-08-05T07:22:09;26.20;99.90
41435;DHT22;27177;22.262;114.192;2022-08-05T07:24:36;26.30;99.90
41435;DHT22;27177;22.262;114.192;2022-08-05T07:27:03;26.30;99.90
41435;DHT22;27177;22.262;114.192;2022-08-05T07:29:30;26.40;99.90
41435;DHT22;27177;22.262;114.192;2022-08-05T07:31:57;26.40;99.90
41435;DHT22;27177;22.262;114.192;2022-08-05T07:34:24;26.40;99.90
41435;DHT22;27177;22.262;114.192;2022-08-05T07:36:51;26.40;99.90
41435;DHT22;27177;22.262;114.192;2022-08-05T07:39:18;26.40;99.90
41435;DHT22;27177;22.262;114.192;2022-08-05T07:41:45;26.40;99.90
41435;DHT22;27177;22.262;114.192;2022-08-05T07:44:12;26.30;99.90
41435;DHT22;27177;22.262;114.192;2022-08-05T07:46:39;26.40;99.90
41435;DHT22;27177;22.262;114.192;2022-08-05T07:49:06;26.20;99.90
41435;DHT22;27177;22.262;114.192;2022-08-05T07:51:35;26.20;99.90
41435;DHT22;27177;22.262;114.192;2022-08-05T07:54:02;25.90;99.90
41435;DHT22;27177;22.262;114.192;2022-08-05T07:56:29;25.70;99.90
41435;DHT22;27177;22.262;114.192;2022-08-05T07:58:56;25.60;99.90
41435;DHT22;27177;22.262;114.192;2022-08-05T08:06:34;25.40;99.90
41435;DHT22;27177;22.262;114.192;2022-08-05T08:09:01;25.40;99.90
41435;DHT22;27177;22.262;114.192;2022-08-05T08:11:28;25.30;99.90
41435;DHT22;27177;22.262;114.192;2022-08-05T08:16:30;25.20;99.90
41435;DHT22;27177;22.262;114.192;2022-08-05T08:18:57;25.00;99.90
41435;DHT22;27177;22.262;114.192;2022-08-05T08:21:24;25.00;99.90
41435;DHT22;27177;22.262;114.192;2022-08-05T08:23:51;25.00;99.90
41435;DHT22;27177;22.262;114.192;2022-08-05T08:26:20;25.00;99.90
41435;DHT22;27177;22.262;114.192;2022-08-05T08:28:47;25.00;99.90
41435;DHT22;27177;22.262;114.192;2022-08-05T08:31:14;25.00;99.90
41435;DHT22;27177;22.262;114.192;2022-08-05T08:33:43;25.00;99.90
41435;DHT22;27177;22.262;114.192;2022-08-05T08:36:10;25.00;99.90
41435;DHT22;27177;22.262;114.192;2022-08-05T08:38:37;24.90;99.90
41435;DHT22;27177;22.262;114.192;2022-08-05T08:41:12;24.90;99.90
41435;DHT22;27177;22.262;114.192;2022-08-05T08:43:40;24.90;99.90
41435;DHT22;27177;22.262;114.192;2022-08-05T08:46:09;24.90;99.90
41435;DHT22;27177;22.262;114.192;2022-08-05T08:48:36;24.90;99.90
41435;DHT22;27177;22.262;114.192;2022-08-05T08:51:06;25.00;99.90
41435;DHT22;27177;22.262;114.192;2022-08-05T08:53:37;25.00;99.90
41435;DHT22;27177;22.262;114.192;2022-08-05T08:56:05;24.90;99.90
41435;DHT22;27177;22.262;114.192;2022-08-05T08:58:32;24.90;99.90
41435;DHT22;27177;22.262;114.192;2022-08-05T09:00:59;24.90;99.90
41435;DHT22;27177;22.262;114.192;2022-08-05T09:03:26;24.90;99.90
41435;DHT22;27177;22.262;114.192;2022-08-05T09:05:54;24.90;99.90
41435;DHT22;27177;22.262;114.192;2022-08-05T09:08:22;25.00;99.90
41435;DHT22;27177;22.262;114.192;2022-08-05T09:10:50;24.90;99.90
41435;DHT22;27177;22.262;114.192;2022-08-05T09:13:17;25.00;99.90
41435;DHT22;27177;22.262;114.192;2022-08-05T09:15:45;25.00;99.90
41435;DHT22;27177;22.262;114.192;2022-08-05T09:18:12;25.00;99.90
41435;DHT22;27177;22.262;114.192;2022-08-05T09:20:39;24.90;99.90
41435;DHT22;27177;22.262;114.192;2022-08-05T09:23:17;24.90;99.90
41435;DHT22;27177;22.262;114.192;2022-08-05T09:25:50;24.90;99.90
41435;DHT22;27177;22.262;114.192;2022-08-05T09:28:23;25.00;99.90
41435;DHT22;27177;22.262;114.192;2022-08-05T09:31:10;24.90;99.90
41435;DHT22;27177;22.262;114.192;2022-08-05T09:36:21;25.00;99.90
41435;DHT22;27177;22.262;114.192;2022-08-05T09:39:14;25.10;99.90
41435;DHT22;27177;22.262;114.192;2022-08-05T09:44:35;25.10;99.90
41435;DHT22;27177;22.262;114.192;2022-08-05T09:47:17;25.10;99.90
41435;DHT22;27177;22.262;114.192;2022-08-05T09:49:48;25.20;99.90
41435;DHT22;27177;22.262;114.192;2022-08-05T09:52:22;25.20;99.90
41435;DHT22;27177;22.262;114.192;2022-08-05T09:54:58;25.20;99.90
41435;DHT22;27177;22.262;114.192;2022-08-05T09:57:35;25.20;99.90
41435;DHT22;27177;22.262;114.192;2022-08-05T10:00:08;25.20;99.90
41435;DHT22;27177;22.262;114.192;2022-08-05T10:02:49;25.20;99.90
41435;DHT22;27177;22.262;114.192;2022-08-05T10:05:23;25.20;99.90
41435;DHT22;27177;22.262;114.192;2022-08-05T10:07:56;25.20;99.90
41435;DHT22;27177;22.262;114.192;2022-08-05T10:12:59;25.10;99.90
41435;DHT22;27177;22.262;114.192;2022-08-05T10:15:32;25.20;99.90
41435;DHT22;27177;22.262;114.192;2022-08-05T10:18:17;25.20;99.90
41435;DHT22;27177;22.262;114.192;2022-08-05T10:20:57;25.10;99.90
41435;DHT22;27177;22.262;114.192;2022-08-05T10:23:27;25.20;99.90
41435;DHT22;27177;22.262;114.192;2022-08-05T10:25:55;25.10;99.90
41435;DHT22;27177;22.262;114.192;2022-08-05T10:28:23;25.20;99.90
41435;DHT22;27177;22.262;114.192;2022-08-05T10:30:53;25.20;99.90
41435;DHT22;27177;22.262;114.192;2022-08-05T10:33:22;25.20;99.90
41435;DHT22;27177;22.262;114.192;2022-08-05T10:35:50;25.20;99.90
41435;DHT22;27177;22.262;114.192;2022-08-05T10:38:22;25.20;99.90
41435;DHT22;27177;22.262;114.192;2022-08-05T10:43:42;25.10;99.90
41435;DHT22;27177;22.262;114.192;2022-08-05T10:46:15;25.10;99.90
41435;DHT22;27177;22.262;114.192;2022-08-05T10:48:44;25.20;99.90
41435;DHT22;27177;22.262;114.192;2022-08-05T10:51:17;25.20;99.90
41435;DHT22;27177;22.262;114.192;2022-08-05T10:56:28;25.20;99.90
41435;DHT22;27177;22.262;114.192;2022-08-05T10:59:04;25.20;99.90
41435;DHT22;27177;22.262;114.192;2022-08-05T11:01:37;25.20;99.90
41435;DHT22;27177;22.262;114.192;2022-08-05T11:09:24;25.20;99.90
41435;DHT22;27177;22.262;114.192;2022-08-05T11:11:53;25.10;99.90
41435;DHT22;27177;22.262;114.192;2022-08-05T11:14:32;25.10;99.90
41435;DHT22;27177;22.262;114.192;2022-08-05T11:19:53;25.10;99.90
41435;DHT22;27177;22.262;114.192;2022-08-05T11:22:45;25.20;99.90
41435;DHT22;27177;22.262;114.192;2022-08-05T11:25:33;25.20;99.90
41435;DHT22;27177;22.262;114.192;2022-08-05T11:36:00;25.20;99.90
41435;DHT22;27177;22.262;114.192;2022-08-05T11:41:22;25.20;99.90
41435;DHT22;27177;22.262;114.192;2022-08-05T11:44:06;25.10;99.90
41435;DHT22;27177;22.262;114.192;2022-08-05T11:46:40;25.10;99.90
41435;DHT22;27177;22.262;114.192;2022-08-05T11:49:11;25.10;99.90
41435;DHT22;27177;22.262;114.192;2022-08-05T11:51:42;25.10;99.90
41435;DHT22;27177;22.262;114.192;2022-08-05T11:54:19;25.20;99.90
41435;DHT22;27177;22.262;114.192;2022-08-05T11:56:51;25.10;99.90
41435;DHT22;27177;22.262;114.192;2022-08-05T11:59:20;25.00;99.90
41435;DHT22;27177;22.262;114.192;2022-08-05T12:02:06;25.00;99.90
41435;DHT22;27177;22.262;114.192;2022-08-05T12:04:42;25.00;99.90
41435;DHT22;27177;22.262;114.192;2022-08-05T12:07:12;25.00;99.90
41435;DHT22;27177;22.262;114.192;2022-08-05T12:09:47;25.00;99.90
41435;DHT22;27177;22.262;114.192;2022-08-05T12:12:22;25.00;99.90
41435;DHT22;27177;22.262;114.192;2022-08-05T12:14:50;25.00;99.90
41435;DHT22;27177;22.262;114.192;2022-08-05T12:17:17;25.00;99.90
41435;DHT22;27177;22.262;114.192;2022-08-05T12:19:48;25.00;99.90
41435;DHT22;27177;22.262;114.192;2022-08-05T12:22:18;25.00;99.90
41435;DHT22;27177;22.262;114.192;2022-08-05T12:24:48;25.00;99.90
41435;DHT22;27177;22.262;114.192;2022-08-05T12:27:26;25.00;99.90
41435;DHT22;27177;22.262;114.192;2022-08-05T12:30:09;25.00;99.90
41435;DHT22;27177;22.262;114.192;2022-08-05T12:33:03;25.00;99.90
41435;DHT22;27177;22.262;114.192;2022-08-05T12:35:31;25.00;99.90
41435;DHT22;27177;22.262;114.192;2022-08-05T12:37:58;25.00;99.90
41435;DHT22;27177;22.262;114.192;2022-08-05T12:40:28;25.00;99.90
41435;DHT22;27177;22.262;114.192;2022-08-05T12:42:56;25.00;99.90
41435;DHT22;27177;22.262;114.192;2022-08-05T12:45:23;25.00;99.90
41435;DHT22;27177;22.262;114.192;2022-08-05T12:47:50;25.00;99.90
41435;DHT22;27177;22.262;114.192;2022-08-05T12:50:17;25.00;99.90
41435;DHT22;27177;22.262;114.192;2022-08-05T12:52:55;25.00;99.90
41435;DHT22;27177;22.262;114.192;2022-08-05T12:55:26;25.00;99.90
41435;DHT22;27177;22.262;114.192;2022-08-05T12:57:55;25.00;99.90
41435;DHT22;27177;22.262;114.192;2022-08-05T13:00:24;25.00;99.90
41435;DHT22;27177;22.262;114.192;2022-08-05T13:02:55;25.00;99.90
41435;DHT22;27177;22.262;114.192;2022-08-05T13:05:23;25.00;99.90
41435;DHT22;27177;22.262;114.192;2022-08-05T13:07:50;25.00;99.90
41435;DHT22;27177;22.262;114.192;2022-08-05T13:10:17;25.00;99.90
41435;DHT22;27177;22.262;114.192;2022-08-05T13:12:45;25.00;99.90
41435;DHT22;27177;22.262;114.192;2022-08-05T13:15:14;25.10;99.90
41435;DHT22;27177;22.262;114.192;2022-08-05T13:17:52;25.10;99.90
41435;DHT22;27177;22.262;114.192;2022-08-05T13:20:20;25.10;99.90
41435;DHT22;27177;22.262;114.192;2022-08-05T13:22:50;25.10;99.90
41435;DHT22;27177;22.262;114.192;2022-08-05T13:25:19;25.10;99.90
41435;DHT22;27177;22.262;114.192;2022-08-05T13:27:51;25.10;99.90
41435;DHT22;27177;22.262;114.192;2022-08-05T13:30:20;25.10;99.90
41435;DHT22;27177;22.262;114.192;2022-08-05T13:32:48;25.00;99.90
41435;DHT22;27177;22.262;114.192;2022-08-05T13:35:19;25.10;99.90
41435;DHT22;27177;22.262;114.192;2022-08-05T13:37:47;25.10;99.90
41435;DHT22;27177;22.262;114.192;2022-08-05T13:40:14;25.10;99.90
41435;DHT22;27177;22.262;114.192;2022-08-05T13:42:42;25.10;99.90
41435;DHT22;27177;22.262;114.192;2022-08-05T13:45:09;25.10;99.90
41435;DHT22;27177;22.262;114.192;2022-08-05T13:47:37;25.10;99.90
41435;DHT22;27177;22.262;114.192;2022-08-05T13:50:05;25.10;99.90
41435;DHT22;27177;22.262;114.192;2022-08-05T13:52:33;25.10;99.90
41435;DHT22;27177;22.262;114.192;2022-08-05T13:55:01;25.10;99.90
41435;DHT22;27177;22.262;114.192;2022-08-05T13:57:28;25.10;99.90
41435;DHT22;27177;22.262;114.192;2022-08-05T13:59:56;25.10;99.90
41435;DHT22;27177;22.262;114.192;2022-08-05T14:02:26;25.20;99.90
41435;DHT22;27177;22.262;114.192;2022-08-05T14:04:53;25.20;99.90
41435;DHT22;27177;22.262;114.192;2022-08-05T14:07:43;25.20;99.90
41435;DHT22;27177;22.262;114.192;2022-08-05T14:10:16;25.20;99.90
41435;DHT22;27177;22.262;114.192;2022-08-05T14:12:44;25.20;99.90
41435;DHT22;27177;22.262;114.192;2022-08-05T14:15:12;25.20;99.90
41435;DHT22;27177;22.262;114.192;2022-08-05T14:17:39;25.20;99.90
41435;DHT22;27177;22.262;114.192;2022-08-05T14:20:08;25.20;99.90
41435;DHT22;27177;22.262;114.192;2022-08-05T14:22:35;25.20;99.90
41435;DHT22;27177;22.262;114.192;2022-08-05T14:25:05;25.20;99.90
41435;DHT22;27177;22.262;114.192;2022-08-05T14:27:35;25.20;99.90
41435;DHT22;27177;22.262;114.192;2022-08-05T14:30:03;25.10;99.90
41435;DHT22;27177;22.262;114.192;2022-08-05T14:32:30;25.10;99.90
41435;DHT22;27177;22.262;114.192;2022-08-05T14:34:57;25.10;99.90
41435;DHT22;27177;22.262;114.192;2022-08-05T14:37:24;25.10;99.90
41435;DHT22;27177;22.262;114.192;2022-08-05T14:39:51;25.10;99.90
41435;DHT22;27177;22.262;114.192;2022-08-05T14:42:18;25.10;99.90
41435;DHT22;27177;22.262;114.192;2022-08-05T14:44:45;25.10;99.90
41435;DHT22;27177;22.262;114.192;2022-08-05T14:47:12;25.20;99.90
41435;DHT22;27177;22.262;114.192;2022-08-05T14:49:39;25.20;99.90
41435;DHT22;27177;22.262;114.192;2022-08-05T14:52:06;25.10;99.90
41435;DHT22;27177;22.262;114.192;2022-08-05T14:54:34;25.10;99.90
41435;DHT22;27177;22.262;114.192;2022-08-05T14:57:01;25.10;99.90
41435;DHT22;27177;22.262;114.192;2022-08-05T14:59:28;25.10;99.90
41435;DHT22;27177;22.262;114.192;2022-08-05T15:01:56;25.00;99.90
41435;DHT22;27177;22.262;114.192;2022-08-05T15:04:23;25.00;99.90
41435;DHT22;27177;22.262;114.192;2022-08-05T15:06:50;25.00;99.90
41435;DHT22;27177;22.262;114.192;2022-08-05T15:09:21;25.10;99.90
41435;DHT22;27177;22.262;114.192;2022-08-05T15:11:48;25.10;99.90
41435;DHT22;27177;22.262;114.192;2022-08-05T15:14:15;25.00;99.90
41435;DHT22;27177;22.262;114.192;2022-08-05T15:16:42;25.10;99.90
41435;DHT22;27177;22.262;114.192;2022-08-05T15:19:09;25.00;99.90
41435;DHT22;27177;22.262;114.192;2022-08-05T15:21:36;25.10;99.90
41435;DHT22;27177;22.262;114.192;2022-08-05T15:24:03;25.00;99.90
41435;DHT22;27177;22.262;114.192;2022-08-05T15:26:35;25.10;99.90
41435;DHT22;27177;22.262;114.192;2022-08-05T15:29:03;25.10;99.90
41435;DHT22;27177;22.262;114.192;2022-08-05T15:31:31;25.20;99.90
41435;DHT22;27177;22.262;114.192;2022-08-05T15:33:58;25.20;99.90
41435;DHT22;27177;22.262;114.192;2022-08-05T15:36:25;25.20;99.90
41435;DHT22;27177;22.262;114.192;2022-08-05T15:38:53;25.20;99.90
41435;DHT22;27177;22.262;114.192;2022-08-05T15:41:22;25.20;99.90
41435;DHT22;27177;22.262;114.192;2022-08-05T15:43:51;25.20;99.90
41435;DHT22;27177;22.262;114.192;2022-08-05T15:46:22;25.20;99.90
41435;DHT22;27177;22.262;114.192;2022-08-05T15:48:55;25.20;99.90
41435;DHT22;27177;22.262;114.192;2022-08-05T15:51:26;25.20;99.90
41435;DHT22;27177;22.262;114.192;2022-08-05T15:53:54;25.30;99.90
41435;DHT22;27177;22.262;114.192;2022-08-05T15:56:22;25.20;99.90
41435;DHT22;27177;22.262;114.192;2022-08-05T15:58:49;25.20;99.90
41435;DHT22;27177;22.262;114.192;2022-08-05T16:01:16;25.20;99.90
41435;DHT22;27177;22.262;114.192;2022-08-05T16:03:48;25.20;99.90
41435;DHT22;27177;22.262;114.192;2022-08-05T16:06:18;25.20;99.90
41435;DHT22;27177;22.262;114.192;2022-08-05T16:08:45;25.20;99.90
41435;DHT22;27177;22.262;114.192;2022-08-05T16:11:12;25.20;99.90
41435;DHT22;27177;22.262;114.192;2022-08-05T16:13:39;25.20;99.90
41435;DHT22;27177;22.262;114.192;2022-08-05T16:16:06;25.20;99.90
41435;DHT22;27177;22.262;114.192;2022-08-05T16:18:35;25.20;99.90
41435;DHT22;27177;22.262;114.192;2022-08-05T16:21:02;25.20;99.90
41435;DHT22;27177;22.262;114.192;2022-08-05T16:23:29;25.20;99.90
41435;DHT22;27177;22.262;114.192;2022-08-05T16:26:07;25.20;99.90
41435;DHT22;27177;22.262;114.192;2022-08-05T16:28:38;25.20;99.90
41435;DHT22;27177;22.262;114.192;2022-08-05T16:31:06;25.20;99.90
41435;DHT22;27177;22.262;114.192;2022-08-05T16:33:33;25.20;99.90